createdAt,value
2018-04-23T00:00:50.539Z,56.00
2018-04-23T00:03:17.998Z,56.00
2018-04-23T00:05:45.431Z,56.00
2018-04-23T00:08:12.910Z,56.10
2018-04-23T00:10:40.352Z,56.20
2018-04-23T00:13:07.788Z,56.40
2018-04-23T00:15:35.244Z,56.50
2018-04-23T00:18:02.694Z,56.60
2018-04-23T00:20:30.147Z,56.70
2018-04-23T00:22:57.608Z,56.80
2018-04-23T00:25:25.049Z,57.00
2018-04-23T00:27:53.254Z,57.40
2018-04-23T00:30:20.728Z,57.40
2018-04-23T00:32:48.160Z,57.40
2018-04-23T00:35:15.605Z,57.50
2018-04-23T00:37:43.070Z,57.60
2018-04-23T00:40:10.504Z,57.70
2018-04-23T00:42:37.944Z,57.80
2018-04-23T00:45:06.168Z,58.00
2018-04-23T00:47:33.610Z,58.00
2018-04-23T00:50:01.060Z,58.10
2018-04-23T00:52:28.526Z,58.20
2018-04-23T00:54:55.950Z,58.30
2018-04-23T00:57:23.394Z,58.30
2018-04-23T00:59:51.620Z,58.40
2018-04-23T01:02:19.061Z,58.30
2018-04-23T01:04:46.489Z,58.30
2018-04-23T01:07:14.702Z,58.10
2018-04-23T01:09:42.179Z,58.00
2018-04-23T01:12:10.388Z,57.80
2018-04-23T01:14:38.593Z,57.40
2018-04-23T01:17:06.052Z,57.40
2018-04-23T01:19:33.513Z,57.30
2018-04-23T01:22:00.952Z,57.10
2018-04-23T01:24:28.424Z,56.90
2018-04-23T01:26:55.869Z,56.70
2018-04-23T01:29:23.312Z,57.00
2018-04-23T01:31:50.764Z,56.20
2018-04-23T01:34:18.245Z,56.10
2018-04-23T01:36:45.691Z,56.20
2018-04-23T01:39:13.132Z,56.20
2018-04-23T01:41:40.592Z,56.20
2018-04-23T01:44:08.037Z,56.30
2018-04-23T01:46:35.757Z,56.40
2018-04-23T01:49:03.216Z,56.50
2018-04-23T01:51:30.659Z,56.60
2018-04-23T01:53:58.126Z,56.50
2018-04-23T01:56:25.620Z,56.40
2018-04-23T01:58:53.056Z,56.30
2018-04-23T02:01:21.375Z,56.10
2018-04-23T02:03:48.788Z,56.10
2018-04-23T02:06:16.996Z,56.10
2018-04-23T02:08:44.463Z,56.10
2018-04-23T02:11:11.907Z,56.00
2018-04-23T02:13:39.348Z,56.10
2018-04-23T02:16:06.860Z,56.20
2018-04-23T02:18:34.240Z,56.20
2018-04-23T02:21:02.484Z,56.20
2018-04-23T02:23:29.929Z,56.20
2018-04-23T02:25:57.373Z,56.20
2018-04-23T02:28:24.827Z,55.90
2018-04-23T02:30:52.271Z,55.90
2018-04-23T02:33:19.717Z,55.80
2018-04-23T02:35:47.194Z,55.90
2018-04-23T02:38:14.622Z,55.90
2018-04-23T02:40:42.061Z,56.00
2018-04-23T02:43:10.378Z,56.00
2018-04-23T02:45:37.816Z,56.00
2018-04-23T02:48:05.248Z,56.00
2018-04-23T02:50:33.485Z,56.20
2018-04-23T02:53:00.925Z,56.20
2018-04-23T02:55:28.352Z,56.20
2018-04-23T02:57:55.817Z,56.20
2018-04-23T03:00:23.318Z,56.50
2018-04-23T03:02:50.762Z,56.50
2018-04-23T03:05:18.215Z,56.50
2018-04-23T03:07:45.662Z,56.50
2018-04-23T03:10:13.129Z,56.60
2018-04-23T03:12:40.545Z,56.70
2018-04-23T03:15:08.013Z,56.70
2018-04-23T03:17:35.452Z,56.70
2018-04-23T03:20:03.675Z,56.60
2018-04-23T03:22:31.140Z,56.70
2018-04-23T03:24:58.569Z,56.60
2018-04-23T03:27:26.008Z,56.70
2018-04-23T03:29:53.473Z,56.70
2018-04-23T03:32:20.908Z,56.70
2018-04-23T03:34:48.344Z,56.90
2018-04-23T03:37:15.800Z,56.90
2018-04-23T03:39:45.013Z,56.90
2018-04-23T03:42:12.493Z,57.00
2018-04-23T03:44:39.933Z,57.10
2018-04-23T03:47:07.368Z,57.10
2018-04-23T03:49:35.627Z,57.10
2018-04-23T03:52:03.831Z,57.00
2018-04-23T03:54:31.301Z,57.00
2018-04-23T03:56:58.760Z,57.10
2018-04-23T03:59:26.200Z,57.00
2018-04-23T04:01:53.637Z,56.90
2018-04-23T04:04:21.091Z,56.80
2018-04-23T04:06:49.374Z,56.80
2018-04-23T04:09:16.922Z,56.80
2018-04-23T04:11:44.328Z,56.80
2018-04-23T04:14:23.652Z,57.40
2018-04-23T04:16:57.688Z,56.80
2018-04-23T04:19:25.101Z,56.80
2018-04-23T04:21:52.796Z,56.80
2018-04-23T04:24:20.268Z,56.80
2018-04-23T04:26:47.709Z,56.80
2018-04-23T04:29:15.984Z,56.80
2018-04-23T04:31:43.454Z,56.80
2018-04-23T04:34:10.889Z,56.70
2018-04-23T04:36:38.329Z,56.70
2018-04-23T04:39:06.552Z,56.90
2018-04-23T04:41:34.786Z,56.80
2018-04-23T04:44:02.218Z,56.80
2018-04-23T04:46:29.673Z,56.90
2018-04-23T04:48:57.116Z,56.90
2018-04-23T04:51:24.556Z,56.90
2018-04-23T04:53:52.779Z,56.90
2018-04-23T04:56:20.216Z,56.90
2018-04-23T04:58:47.657Z,56.90
2018-04-23T05:01:15.131Z,57.00
2018-04-23T05:03:42.572Z,57.00
2018-04-23T05:06:10.005Z,57.00
2018-04-23T05:08:37.463Z,57.00
2018-04-23T05:11:04.901Z,57.20
2018-04-23T05:13:33.129Z,57.40
2018-04-23T05:16:00.566Z,57.40
2018-04-23T05:18:28.005Z,57.50
2018-04-23T05:20:55.473Z,57.60
2018-04-23T05:23:23.048Z,57.70
2018-04-23T05:25:50.494Z,57.80
2018-04-23T05:28:17.949Z,57.90
2018-04-23T05:30:45.392Z,58.10
2018-04-23T05:33:12.872Z,58.20
2018-04-23T05:35:40.305Z,58.10
2018-04-23T05:38:07.776Z,58.30
2018-04-23T05:40:35.266Z,58.40
2018-04-23T05:43:02.662Z,58.60
2018-04-23T05:45:30.121Z,58.80
2018-04-23T05:47:57.557Z,59.00
2018-04-23T05:50:25.760Z,59.40
2018-04-23T05:52:53.228Z,60.00
2018-04-23T05:55:20.679Z,60.20
2018-04-23T05:57:48.117Z,59.90
2018-04-23T06:00:15.667Z,60.20
2018-04-23T06:02:43.880Z,60.80
2018-04-23T06:05:11.334Z,60.80
2018-04-23T06:07:38.780Z,60.90
2018-04-23T06:10:06.223Z,61.30
2018-04-23T06:12:33.670Z,61.70
2018-04-23T06:15:01.134Z,61.80
2018-04-23T06:17:28.571Z,62.20
2018-04-23T06:19:56.787Z,62.60
2018-04-23T06:22:24.242Z,62.60
2018-04-23T06:24:51.679Z,62.90
2018-04-23T06:27:19.110Z,63.10
2018-04-23T06:29:47.321Z,63.30
2018-04-23T06:32:14.783Z,63.30
2018-04-23T06:34:42.240Z,63.30
2018-04-23T06:37:09.684Z,63.20
2018-04-23T06:39:37.155Z,62.80
2018-04-23T06:42:04.606Z,62.50
2018-04-23T06:44:32.808Z,60.70
2018-04-23T06:47:00.288Z,60.60
2018-04-23T06:49:28.490Z,59.10
2018-04-23T06:51:55.925Z,59.10
2018-04-23T06:54:23.393Z,57.30
2018-04-23T06:56:50.836Z,54.30
2018-04-23T06:59:18.272Z,55.70
2018-04-23T07:01:46.555Z,54.50
2018-04-23T07:04:13.968Z,54.50
2018-04-23T07:06:41.402Z,54.20
2018-04-23T07:09:08.853Z,54.10
2018-04-23T07:11:36.289Z,54.00
2018-04-23T07:14:03.730Z,53.70
2018-04-23T07:16:31.991Z,52.90
2018-04-23T07:19:00.168Z,52.90
2018-04-23T07:21:28.369Z,52.90
2018-04-23T07:23:55.928Z,52.90
2018-04-23T07:26:23.356Z,53.00
2018-04-23T07:28:51.556Z,53.00
2018-04-23T07:31:19.037Z,53.00
2018-04-23T07:33:46.468Z,52.90
2018-04-23T07:36:13.905Z,52.90
2018-04-23T07:38:42.145Z,52.70
2018-04-23T07:41:09.593Z,52.70
2018-04-23T07:43:37.030Z,52.50
2018-04-23T07:46:04.475Z,52.30
2018-04-23T07:48:31.944Z,52.40
2018-04-23T07:50:59.381Z,52.50
2018-04-23T07:53:26.818Z,52.60
2018-04-23T07:55:54.363Z,52.60
2018-04-23T07:58:22.573Z,52.60
2018-04-23T08:00:50.013Z,52.50
2018-04-23T08:03:17.494Z,52.60
2018-04-23T08:05:44.925Z,52.70
2018-04-23T08:08:12.361Z,52.90
2018-04-23T08:10:40.593Z,53.30
2018-04-23T08:13:08.028Z,53.30
2018-04-23T08:15:35.485Z,53.50
2018-04-23T08:18:02.940Z,53.80
2018-04-23T08:20:30.379Z,53.80
2018-04-23T08:22:57.828Z,54.00
2018-04-23T08:25:25.315Z,54.10
2018-04-23T08:27:52.739Z,54.10
2018-04-23T08:30:20.192Z,54.20
2018-04-23T08:32:47.657Z,54.30
2018-04-23T08:35:15.094Z,54.20
2018-04-23T08:37:43.295Z,54.40
2018-04-23T08:40:10.757Z,54.30
2018-04-23T08:42:38.193Z,54.30
2018-04-23T08:45:05.692Z,54.40
2018-04-23T08:47:33.112Z,54.60
2018-04-23T08:50:00.557Z,54.60
2018-04-23T08:52:28.002Z,54.90
2018-04-23T08:54:56.223Z,55.20
2018-04-23T08:57:23.744Z,55.20
2018-04-23T08:59:51.938Z,55.90
2018-04-23T09:02:19.375Z,55.90
2018-04-23T09:04:46.839Z,55.70
2018-04-23T09:07:14.272Z,55.40
2018-04-23T09:09:42.485Z,55.90
2018-04-23T09:12:09.952Z,55.90
2018-04-23T09:14:37.383Z,56.40
2018-04-23T09:17:04.823Z,56.40
2018-04-23T09:19:32.273Z,56.40
2018-04-23T09:21:59.726Z,56.20
2018-04-23T09:24:27.168Z,57.20
2018-04-23T09:26:55.389Z,56.50
2018-04-23T09:29:22.843Z,56.50
2018-04-23T09:31:50.282Z,56.00
2018-04-23T09:34:17.716Z,55.90
2018-04-23T09:36:45.173Z,56.00
2018-04-23T09:39:12.603Z,56.30
2018-04-23T09:41:40.041Z,56.50
2018-04-23T09:44:07.516Z,56.60
2018-04-23T09:46:34.949Z,56.80
2018-04-23T09:49:02.405Z,57.60
2018-04-23T09:51:29.874Z,57.00
2018-04-23T09:53:57.315Z,57.10
2018-04-23T09:56:24.748Z,57.30
2018-04-23T09:58:52.235Z,57.90
2018-04-23T10:01:20.459Z,57.50
2018-04-23T10:03:50.724Z,57.80
2018-04-23T10:06:18.189Z,57.70
2018-04-23T10:08:45.620Z,58.20
2018-04-23T10:11:13.065Z,58.00
2018-04-23T10:13:40.528Z,57.80
2018-04-23T10:16:07.973Z,57.70
2018-04-23T10:18:35.413Z,57.50
2018-04-23T10:21:02.910Z,57.50
2018-04-23T10:23:30.341Z,56.20
2018-04-23T10:25:57.793Z,56.60
2018-04-23T10:28:25.260Z,55.50
2018-04-23T10:30:52.694Z,56.10
2018-04-23T10:33:20.133Z,56.10
2018-04-23T10:35:48.372Z,56.20
2018-04-23T10:38:15.816Z,56.20
2018-04-23T10:40:43.255Z,56.40
2018-04-23T10:43:10.725Z,56.60
2018-04-23T10:45:38.166Z,56.50
2018-04-23T10:48:05.605Z,56.20
2018-04-23T10:50:33.061Z,56.20
2018-04-23T10:53:00.492Z,56.20
2018-04-23T10:55:28.699Z,56.40
2018-04-23T10:57:56.185Z,56.40
2018-04-23T11:00:23.623Z,56.50
2018-04-23T11:02:51.092Z,56.60
2018-04-23T11:05:18.550Z,56.70
2018-04-23T11:07:45.995Z,56.60
2018-04-23T11:10:13.437Z,56.80
2018-04-23T11:12:40.920Z,56.60
2018-04-23T11:15:08.347Z,56.50
2018-04-23T11:17:35.783Z,57.00
2018-04-23T11:20:03.253Z,57.10
2018-04-23T11:22:30.688Z,57.00
2018-04-23T11:24:58.132Z,57.10
2018-04-23T11:27:26.384Z,57.10
2018-04-23T11:29:53.835Z,57.10
2018-04-23T11:32:21.279Z,57.00
2018-04-23T11:34:48.744Z,56.80
2018-04-23T11:37:16.186Z,57.00
2018-04-23T11:39:43.622Z,57.20
2018-04-23T11:42:11.083Z,57.40
2018-04-23T11:44:38.533Z,57.80
2018-04-23T11:47:05.978Z,58.00
2018-04-23T11:49:33.444Z,58.20
2018-04-23T11:52:00.872Z,58.60
2018-04-23T11:54:28.338Z,59.10
2018-04-23T11:56:55.782Z,59.80
2018-04-23T11:59:23.208Z,60.70
2018-04-23T12:01:51.461Z,62.90
2018-04-23T12:04:19.660Z,64.10
2018-04-23T12:06:47.870Z,65.40
2018-04-23T12:09:15.507Z,65.40
2018-04-23T12:11:43.713Z,67.50
2018-04-23T12:14:11.164Z,67.50
2018-04-23T12:16:38.626Z,68.50
2018-04-23T12:19:06.071Z,69.40
2018-04-23T12:21:33.519Z,70.50
2018-04-23T12:24:00.968Z,71.20
2018-04-23T12:26:28.411Z,72.10
2018-04-23T12:28:56.614Z,73.10
2018-04-23T12:31:24.103Z,73.10
2018-04-23T12:33:51.541Z,73.70
2018-04-23T12:36:18.961Z,74.20
2018-04-23T12:38:46.755Z,74.80
2018-04-23T12:41:14.202Z,75.50
2018-04-23T12:43:41.667Z,75.80
2018-04-23T12:46:09.189Z,76.20
2018-04-23T12:48:36.548Z,76.50
2018-04-23T12:51:04.044Z,76.80
2018-04-23T12:53:31.442Z,77.10
2018-04-23T12:55:59.657Z,77.70
2018-04-23T12:58:27.140Z,77.70
2018-04-23T13:00:54.583Z,77.80
2018-04-23T13:03:22.025Z,77.90
2018-04-23T13:05:49.623Z,78.20
2018-04-23T13:08:17.032Z,78.40
2018-04-23T13:10:44.465Z,78.60
2018-04-23T13:13:12.020Z,78.80
2018-04-23T13:15:39.468Z,78.90
2018-04-23T13:18:07.668Z,79.40
2018-04-23T13:20:35.144Z,79.30
2018-04-23T13:23:02.584Z,79.70
2018-04-23T13:25:30.034Z,79.70
2018-04-23T13:27:57.492Z,80.00
2018-04-23T13:30:24.937Z,80.20
2018-04-23T13:32:52.384Z,80.20
2018-04-23T13:35:19.841Z,80.40
2018-04-23T13:37:47.293Z,80.40
2018-04-23T13:40:14.728Z,80.60
2018-04-23T13:42:43.011Z,81.20
2018-04-23T13:45:11.161Z,81.60
2018-04-23T13:47:38.605Z,81.50
2018-04-23T13:50:06.066Z,81.80
2018-04-23T13:52:33.499Z,82.40
2018-04-23T13:55:00.938Z,82.20
2018-04-23T13:57:28.408Z,82.90
2018-04-23T13:59:55.843Z,82.40
2018-04-23T14:02:23.277Z,83.00
2018-04-23T14:04:51.507Z,82.90
2018-04-23T14:07:18.943Z,82.90
2018-04-23T14:09:46.381Z,83.10
2018-04-23T14:12:14.608Z,83.80
2018-04-23T14:14:42.049Z,83.70
2018-04-23T14:17:09.509Z,84.00
2018-04-23T14:19:36.951Z,84.20
2018-04-23T14:22:04.395Z,84.40
2018-04-23T14:24:31.858Z,84.40
2018-04-23T14:26:59.296Z,84.70
2018-04-23T14:29:26.744Z,84.60
2018-04-23T14:31:54.206Z,84.80
2018-04-23T14:34:21.658Z,84.70
2018-04-23T14:36:49.085Z,84.70
2018-04-23T14:39:17.303Z,85.20
2018-04-23T14:41:44.740Z,85.20
2018-04-23T14:44:12.200Z,85.20
2018-04-23T14:46:39.633Z,85.20
2018-04-23T14:49:07.102Z,85.30
2018-04-23T14:51:34.531Z,85.40
2018-04-23T14:54:02.767Z,85.20
2018-04-23T14:56:30.217Z,85.20
2018-04-23T14:58:57.693Z,85.00
2018-04-23T15:01:25.111Z,85.10
2018-04-23T15:03:52.563Z,85.20
2018-04-23T15:06:20.025Z,85.50
2018-04-23T15:08:47.485Z,85.50
2018-04-23T15:11:14.944Z,85.40
2018-04-23T15:13:42.377Z,85.20
2018-04-23T15:16:09.822Z,85.00
2018-04-23T15:18:37.288Z,84.80
2018-04-23T15:21:04.719Z,84.70
2018-04-23T15:23:32.163Z,84.60
2018-04-23T15:26:00.381Z,84.40
2018-04-23T15:28:27.841Z,84.40
2018-04-23T15:30:55.281Z,84.00
2018-04-23T15:33:22.737Z,84.20
2018-04-23T15:35:50.223Z,82.90
2018-04-23T15:38:17.730Z,83.20
2018-04-23T15:40:45.955Z,83.30
2018-04-23T15:43:13.408Z,83.20
2018-04-23T15:45:40.840Z,83.30
2018-04-23T15:48:08.307Z,83.50
2018-04-23T15:50:35.751Z,83.70
2018-04-23T15:53:03.193Z,83.80
2018-04-23T15:55:30.649Z,84.00
2018-04-23T15:57:58.078Z,83.60
2018-04-23T16:00:26.347Z,83.70
2018-04-23T16:02:53.812Z,83.70
2018-04-23T16:05:22.037Z,83.80
2018-04-23T16:07:49.476Z,83.70
2018-04-23T16:10:16.979Z,83.80
2018-04-23T16:12:44.421Z,83.80
2018-04-23T16:15:11.860Z,82.70
2018-04-23T16:17:39.329Z,83.00
2018-04-23T16:20:06.767Z,83.20
2018-04-23T16:22:34.213Z,83.40
2018-04-23T16:25:01.669Z,83.50
2018-04-23T16:27:29.101Z,83.50
2018-04-23T16:29:56.601Z,83.10
2018-04-23T16:32:24.002Z,83.20
2018-04-23T16:34:52.210Z,83.50
2018-04-23T16:37:19.668Z,83.30
2018-04-23T16:39:47.112Z,83.50
2018-04-23T16:42:14.555Z,83.70
2018-04-23T16:44:42.016Z,83.70
2018-04-23T16:47:09.452Z,83.70
2018-04-23T16:49:37.665Z,84.00
2018-04-23T16:52:05.132Z,84.00
2018-04-23T16:54:32.568Z,84.20
2018-04-23T16:57:00.048Z,84.50
2018-04-23T16:59:27.508Z,84.60
2018-04-23T17:01:55.101Z,84.80
2018-04-23T17:04:22.847Z,84.90
2018-04-23T17:06:50.351Z,85.10
2018-04-23T17:09:17.837Z,85.30
2018-04-23T17:11:45.435Z,85.40
2018-04-23T17:14:13.807Z,85.80
2018-04-23T17:16:42.192Z,86.00
2018-04-23T17:19:09.843Z,86.00
2018-04-23T17:21:37.565Z,86.20
2018-04-23T17:24:05.227Z,86.30
2018-04-23T17:26:32.850Z,87.00
2018-04-23T17:29:00.536Z,86.70
2018-04-23T17:31:28.164Z,86.80
2018-04-23T17:33:55.833Z,86.90
2018-04-23T17:36:23.525Z,86.90
2018-04-23T17:38:51.136Z,87.10
2018-04-23T17:41:18.812Z,87.30
2018-04-23T17:43:46.442Z,87.50
2018-04-23T17:46:14.862Z,87.80
2018-04-23T17:48:42.680Z,87.80
2018-04-23T17:51:11.084Z,87.90
2018-04-23T17:53:38.782Z,87.90
2018-04-23T17:56:06.494Z,88.00
2018-04-23T17:58:34.844Z,88.20
2018-04-23T18:01:02.565Z,88.20
2018-04-23T18:03:30.029Z,88.30
2018-04-23T18:05:57.469Z,88.40
2018-04-23T18:08:24.934Z,88.50
2018-04-23T18:10:52.381Z,88.50
2018-04-23T18:13:19.825Z,88.70
2018-04-23T18:15:48.057Z,88.60
2018-04-23T18:18:15.489Z,88.60
2018-04-23T18:20:42.923Z,88.70
2018-04-23T18:23:10.404Z,88.80
2018-04-23T18:25:37.841Z,88.80
2018-04-23T18:28:05.293Z,88.80
2018-04-23T18:30:32.752Z,88.80
2018-04-23T18:33:00.188Z,88.90
2018-04-23T18:35:27.651Z,88.90
2018-04-23T18:37:55.107Z,89.00
2018-04-23T18:40:22.602Z,88.90
2018-04-23T18:42:50.067Z,89.00
2018-04-23T18:45:17.562Z,89.10
2018-04-23T18:47:44.957Z,89.10
2018-04-23T18:50:12.430Z,89.10
2018-04-23T18:52:39.861Z,89.10
2018-04-23T18:55:07.300Z,89.10
2018-04-23T18:57:34.763Z,89.00
2018-04-23T19:00:02.204Z,89.10
2018-04-23T19:02:29.646Z,89.10
2018-04-23T19:04:57.874Z,89.30
2018-04-23T19:07:25.321Z,89.30
2018-04-23T19:09:52.765Z,89.40
2018-04-23T19:12:20.224Z,89.40
2018-04-23T19:14:47.692Z,89.40
2018-04-23T19:17:15.131Z,89.50
2018-04-23T19:19:42.570Z,89.50
2018-04-23T19:22:10.036Z,89.50
2018-04-23T19:24:37.481Z,89.50
2018-04-23T19:27:04.985Z,89.50
2018-04-23T19:29:32.465Z,89.50
2018-04-23T19:32:00.667Z,89.60
2018-04-23T19:34:28.107Z,89.60
2018-04-23T19:36:57.394Z,89.60
2018-04-23T19:39:25.707Z,89.60
2018-04-23T19:41:53.101Z,89.60
2018-04-23T19:44:20.545Z,89.70
2018-04-23T19:46:48.010Z,89.70
2018-04-23T19:49:16.795Z,89.70
2018-04-23T19:51:44.235Z,89.50
2018-04-23T19:54:11.684Z,89.50
2018-04-23T19:56:39.152Z,89.50
2018-04-23T19:59:06.596Z,89.50
2018-04-23T20:01:34.874Z,89.50
2018-04-23T20:04:02.329Z,90.00
2018-04-23T20:06:29.769Z,89.50
2018-04-23T20:08:57.226Z,89.60
2018-04-23T20:11:24.710Z,89.60
2018-04-23T20:13:52.168Z,89.60
2018-04-23T20:16:19.616Z,89.60
2018-04-23T20:21:21.072Z,89.80
2018-04-23T20:23:48.440Z,89.80
2018-04-23T20:26:15.884Z,89.80
2018-04-23T20:28:43.348Z,89.90
2018-04-23T20:31:11.559Z,90.00
2018-04-23T20:33:39.770Z,90.00
2018-04-23T20:36:07.232Z,89.90
2018-04-23T20:38:34.672Z,90.00
2018-04-23T20:41:02.153Z,90.00
2018-04-23T20:43:29.591Z,90.00
2018-04-23T20:45:57.060Z,90.00
2018-04-23T20:48:24.485Z,90.10
2018-04-23T20:50:51.920Z,90.10
2018-04-23T20:53:20.153Z,90.10
2018-04-23T20:55:47.614Z,90.10
2018-04-23T20:58:15.049Z,90.00
2018-04-23T21:00:42.524Z,90.10
2018-04-23T21:03:09.988Z,90.00
2018-04-23T21:05:37.437Z,90.00
2018-04-23T21:08:04.893Z,90.00
2018-04-23T21:10:32.355Z,90.00
2018-04-23T21:12:59.806Z,89.90
2018-04-23T21:15:27.419Z,89.90
2018-04-23T21:17:55.636Z,89.70
2018-04-23T21:20:23.072Z,89.70
2018-04-23T21:22:50.524Z,89.70
2018-04-23T21:25:17.969Z,89.60
2018-04-23T21:27:45.503Z,89.40
2018-04-23T21:30:12.865Z,89.30
2018-04-23T21:32:41.064Z,89.20
2018-04-23T21:35:08.520Z,89.60
2018-04-23T21:37:36.022Z,88.90
2018-04-23T21:40:03.430Z,89.00
2018-04-23T21:42:30.881Z,88.80
2018-04-23T21:44:58.312Z,89.30
2018-04-23T21:47:25.752Z,88.80
2018-04-23T21:49:53.984Z,89.00
2018-04-23T21:52:21.425Z,88.80
2018-04-23T21:54:48.867Z,89.00
2018-04-23T21:57:16.324Z,89.20
2018-04-23T21:59:43.762Z,89.20
2018-04-23T22:02:11.969Z,89.10
2018-04-23T22:04:39.495Z,89.10
2018-04-23T22:07:06.889Z,89.10
2018-04-23T22:09:34.328Z,89.20
2018-04-23T22:12:01.788Z,89.10
2018-04-23T22:14:29.248Z,89.10
2018-04-23T22:16:56.687Z,89.00
2018-04-23T22:19:24.143Z,89.00
2018-04-23T22:21:51.588Z,88.80
2018-04-23T22:24:19.034Z,88.90
2018-04-23T22:26:47.262Z,88.60
2018-04-23T22:29:14.705Z,88.60
2018-04-23T22:31:42.188Z,88.40
2018-04-23T22:34:09.621Z,88.30
2018-04-23T22:36:37.084Z,88.10
2018-04-23T22:39:06.708Z,88.00
2018-04-23T22:41:34.145Z,88.00
2018-04-23T22:44:01.609Z,88.40
2018-04-23T22:46:29.046Z,87.70
2018-04-23T22:48:56.512Z,87.70
2018-04-23T22:51:23.944Z,87.60
2018-04-23T22:53:51.392Z,87.50
2018-04-23T22:56:18.843Z,87.40
2018-04-23T22:58:46.281Z,87.40
2018-04-23T23:01:14.481Z,87.10
2018-04-23T23:03:41.949Z,87.00
2018-04-23T23:06:09.380Z,87.10
2018-04-23T23:08:36.829Z,86.90
2018-04-23T23:11:04.335Z,87.00
2018-04-23T23:13:31.849Z,87.10
2018-04-23T23:15:59.178Z,87.30
2018-04-23T23:18:27.413Z,87.70
2018-04-23T23:20:54.862Z,87.70
2018-04-23T23:23:22.301Z,87.80
2018-04-23T23:25:49.752Z,88.00
2018-04-23T23:28:17.187Z,88.00
2018-04-23T23:30:44.629Z,87.90
2018-04-23T23:33:12.861Z,87.80
2018-04-23T23:35:40.301Z,87.80
2018-04-23T23:38:07.735Z,87.80
2018-04-23T23:40:35.214Z,87.80
2018-04-23T23:43:02.645Z,87.90
2018-04-23T23:45:30.069Z,87.80
2018-04-23T23:47:58.307Z,88.40
2018-04-23T23:50:25.753Z,87.80
2018-04-23T23:52:53.208Z,87.80
2018-04-23T23:55:20.665Z,87.70
2018-04-23T23:57:48.110Z,87.50
